This is the latest recevied weather packets stored in our database for station/object VE2JJ-13. If no packets are shown the sender has not sent any weather packets the latest 10 day(s).
| Time | Temp. | Humidity | Pressure | Rain* | Wind** | Luminosity | Snow |
|---|---|---|---|---|---|---|---|
| 1777818082 | 11.11° C | 44% | 1003.5 hPa | 0 mm | - | - | - |
| 1777817751 | 11.11° C | 46% | 1003.7 hPa | 0 mm | - | - | - |
| 1777817421 | 10.56° C | 47% | 1003.7 hPa | 0 mm | - | - | - |
| 1777814901 | 8.89° C | 57% | 1003.9 hPa | 0 mm | - | - | - |
| 1777811482 | 6.67° C | 74% | 1004.1 hPa | 0 mm | - | - | - |
| 1777811181 | 6.67° C | 74% | 1004 hPa | 0 mm | - | - | - |
| 1777810550 | 6.11° C | 78% | 1004.1 hPa | 0 mm | - | - | - |
| 1777810250 | 5.56° C | 78% | 1004.1 hPa | 0 mm | - | - | - |
| 1777809622 | 5.56° C | 80% | 1003.9 hPa | 0 mm | - | - | - |
| 1777808994 | 5.56° C | 82% | 1003.9 hPa | 0 mm | - | - | - |
| 1777807760 | 5° C | 81% | 1003.8 hPa | 0 mm | - | - | - |
| 1777807099 | 5° C | 83% | 1003.9 hPa | 0 mm | - | - | - |
| 1777806501 | 5° C | 84% | 1003.9 hPa | 0 mm | - | - | - |
| 1777805540 | 3.89° C | 91% | 1003.7 hPa | 0 mm | - | - | - |
| 1777804584 | 3.33° C | 94% | 1003.6 hPa | 0 mm | - | - | - |
| 1777804250 | 2.78° C | 94% | 1003.6 hPa | 0 mm | - | - | - |
| 1777802721 | 2.78° C | 94% | 1003.6 hPa | 0 mm | - | - | - |
| 1777802062 | 2.78° C | 94% | 1003.6 hPa | 0 mm | - | - | - |
| 1777801161 | 2.78° C | 93% | 1003.6 hPa | 0 mm | - | - | - |
| 1777800833 | 2.78° C | 92% | 1003.6 hPa | 0 mm | - | - | - |
| 1777800609 | 2.78° C | 92% | 1003.7 hPa | 0 mm | - | - | - |
| 1777800530 | 2.78° C | 92% | 1003.7 hPa | 0 mm | - | - | - |
| 1777800231 | 2.78° C | 92% | 1003.7 hPa | 0 mm | - | - | - |
| 1777799899 | 2.78° C | 92% | 1003.7 hPa | 0 mm | - | - | - |
| 1777799569 | 2.78° C | 92% | 1003.8 hPa | 0 mm | - | - | - |
* Rain latest hour (hover to see other rain measurements)
** Current wind speed in m/s (hover to see current wind gust speed)